Key West, FL

8:32 PM EST on February 05, 2016 (GMT -0500)
Key West International | | Change Station
CLOSE
Current Station
Airport
Location: Key West,
Elevation: 0 ft
Nearby Weather Stations

Elev 0 ft 24.56 °N, 81.75 °W | Updated 8 minutes ago

Overcast
Overcast
65 °F
Feels Like 65 °F
N
13
Wind Variable Wind from NNE
Gusts 23 mph

Today
High -- | Low -- °F
--% Chance of Precip.
Yesterday
High -- | Low -- °F
Precip. -- in
Pressure 30.16 in
Visibility 10.0 miles
Clouds Overcast 3000 ft
Dew Point 56 °F
Humidity 73%
Rainfall 0.32 in
Snow Depth Not available.
7:07 AM 6:15 PM
Waning Crescent, 8% visible
SPECI KEYW 060124Z 03011G20KT 10SM OVC030 18/13 A3016 RMK AO2 T01830133
Pressure 30.16 in
Visibility 10.0 miles
Clouds Overcast 3000 ft
Dew Point 56 °F
Humidity 73%
Rainfall 0.32 in
Snow Depth Not available.
7:07 AM 6:15 PM
Waning Crescent, 8% visible
SPECI KEYW 060124Z 03011G20KT 10SM OVC030 18/13 A3016 RMK AO2 T01830133

10-Day Weather Forecast

Almanac

Astronomy

Feb. 05, 2016 Rise Set
Actual Time
Civil Twilight
Nautical Twilight
Astronomical Twilight
Moon
Length of Visible Light
Length of Day
Tomorrow will be .
, % of the Moon is Illuminated

Today's Extremes

State Highs State Lows

Community

WunderPhotos

Upload Photos

1,890,906 photos uploaded!

WunderBlog® & News

Nearby

Air Quality

  Air Quality AQ Index Pollutant
Not available.

Snow Depth

Station Depth Elevation

Earthquake Activity

City Distance Mag. Time & Date
Minimum magnitude displayed is 2.5.

Coastal Water Temperatures

Place Temperature

Stations

Nearby Weather Stations

Station Location Temp. Windchill Dew Point Humidity Wind Precip. Elev Updated Type
                   

Watches & Warnings

There are currently no watches in effect.